X  Κλείσε Στοιχεία αεροπορικών μετεωρολογικών δεδομένων METAR        LGTS Thessaloniki Macedonia International
θερμοκρασία
14°C θερμοκρασία
13°C Σημείο δρόσου
94% Υγρασία



Ανεμος
2 MPH
4 KM/H
1 M/S
2 KTS



-1°
VRB
Τρέχουσες συνθήκες

Partly Cloudy Μερικώς συννεφιασμένος
πίεση 1014 (hPa) - 29.94 (inHg)
Ορατότητα 6 (μίλι) - 10 (km)
Aεροδρόμιο
Κωδικός αεροδρομίου LGTS

Τοποθεσία: Thessaloniki Macedonia International
Απόσταση: 85 (mi)

Metar:
METAR LGTS 251250Z VRB02KT 9999 FEW010 SCT030 14/13 Q1014 NOSIG

ώρα: 25-02-2024 14:50 EET